sensor_id;sensor_type;location;lat;lon;timestamp;temperature;humidity
3562;DHT22;1795;52.074;4.754;2022-07-22T00:01:38;18.30;99.90
3562;DHT22;1795;52.074;4.754;2022-07-22T00:04:06;18.30;99.90
3562;DHT22;1795;52.074;4.754;2022-07-22T00:06:34;18.30;99.90
3562;DHT22;1795;52.074;4.754;2022-07-22T00:09:03;18.20;99.90
3562;DHT22;1795;52.074;4.754;2022-07-22T00:11:32;18.20;99.90
3562;DHT22;1795;52.074;4.754;2022-07-22T00:14:01;18.20;99.90
3562;DHT22;1795;52.074;4.754;2022-07-22T00:16:28;18.20;99.90
3562;DHT22;1795;52.074;4.754;2022-07-22T00:18:57;18.20;99.90
3562;DHT22;1795;52.074;4.754;2022-07-22T00:21:26;18.20;99.90
3562;DHT22;1795;52.074;4.754;2022-07-22T00:23:54;18.20;99.90
3562;DHT22;1795;52.074;4.754;2022-07-22T00:26:22;18.20;99.90
3562;DHT22;1795;52.074;4.754;2022-07-22T00:28:51;18.20;99.90
3562;DHT22;1795;52.074;4.754;2022-07-22T00:31:19;18.20;99.90
3562;DHT22;1795;52.074;4.754;2022-07-22T00:33:48;18.20;99.90
3562;DHT22;1795;52.074;4.754;2022-07-22T00:36:15;18.20;99.90
3562;DHT22;1795;52.074;4.754;2022-07-22T00:38:43;18.20;99.90
3562;DHT22;1795;52.074;4.754;2022-07-22T00:41:11;18.20;99.90
3562;DHT22;1795;52.074;4.754;2022-07-22T00:43:51;18.20;99.90
3562;DHT22;1795;52.074;4.754;2022-07-22T00:46:22;18.20;99.90
3562;DHT22;1795;52.074;4.754;2022-07-22T00:48:50;18.20;99.90
3562;DHT22;1795;52.074;4.754;2022-07-22T00:51:19;18.20;99.90
3562;DHT22;1795;52.074;4.754;2022-07-22T00:53:47;18.20;99.90
3562;DHT22;1795;52.074;4.754;2022-07-22T00:56:16;18.20;99.90
3562;DHT22;1795;52.074;4.754;2022-07-22T00:58:46;18.20;99.90
3562;DHT22;1795;52.074;4.754;2022-07-22T01:01:17;18.20;99.90
3562;DHT22;1795;52.074;4.754;2022-07-22T01:03:45;18.20;99.90
3562;DHT22;1795;52.074;4.754;2022-07-22T01:06:17;18.10;99.90
3562;DHT22;1795;52.074;4.754;2022-07-22T01:08:45;18.10;99.90
3562;DHT22;1795;52.074;4.754;2022-07-22T01:11:15;18.20;99.90
3562;DHT22;1795;52.074;4.754;2022-07-22T01:13:44;18.20;99.90
3562;DHT22;1795;52.074;4.754;2022-07-22T01:16:14;18.10;99.90
3562;DHT22;1795;52.074;4.754;2022-07-22T01:18:45;18.20;99.90
3562;DHT22;1795;52.074;4.754;2022-07-22T01:21:16;18.10;99.90
3562;DHT22;1795;52.074;4.754;2022-07-22T01:23:44;18.20;99.90
3562;DHT22;1795;52.074;4.754;2022-07-22T01:26:12;18.10;99.90
3562;DHT22;1795;52.074;4.754;2022-07-22T01:28:41;18.10;99.90
3562;DHT22;1795;52.074;4.754;2022-07-22T01:31:09;18.10;99.90
3562;DHT22;1795;52.074;4.754;2022-07-22T01:33:38;18.10;99.90
3562;DHT22;1795;52.074;4.754;2022-07-22T01:36:06;18.10;99.90
3562;DHT22;1795;52.074;4.754;2022-07-22T01:38:36;18.10;99.90
3562;DHT22;1795;52.074;4.754;2022-07-22T01:41:04;18.10;99.90
3562;DHT22;1795;52.074;4.754;2022-07-22T01:43:32;18.00;99.90
3562;DHT22;1795;52.074;4.754;2022-07-22T01:46:00;18.00;99.90
3562;DHT22;1795;52.074;4.754;2022-07-22T01:48:29;18.10;99.90
3562;DHT22;1795;52.074;4.754;2022-07-22T01:50:57;18.10;99.90
3562;DHT22;1795;52.074;4.754;2022-07-22T01:53:25;18.00;99.90
3562;DHT22;1795;52.074;4.754;2022-07-22T01:55:55;18.10;99.90
3562;DHT22;1795;52.074;4.754;2022-07-22T01:58:23;18.10;99.90
3562;DHT22;1795;52.074;4.754;2022-07-22T02:00:52;18.10;99.90
3562;DHT22;1795;52.074;4.754;2022-07-22T02:03:20;18.10;99.90
3562;DHT22;1795;52.074;4.754;2022-07-22T02:05:48;18.00;99.90
3562;DHT22;1795;52.074;4.754;2022-07-22T02:08:16;18.00;99.90
3562;DHT22;1795;52.074;4.754;2022-07-22T02:10:44;18.00;99.90
3562;DHT22;1795;52.074;4.754;2022-07-22T02:13:14;18.00;99.90
3562;DHT22;1795;52.074;4.754;2022-07-22T02:15:42;18.10;99.90
3562;DHT22;1795;52.074;4.754;2022-07-22T02:18:11;18.10;99.90
3562;DHT22;1795;52.074;4.754;2022-07-22T02:20:40;18.10;99.90
3562;DHT22;1795;52.074;4.754;2022-07-22T02:23:08;18.00;99.90
3562;DHT22;1795;52.074;4.754;2022-07-22T02:25:38;18.00;99.90
3562;DHT22;1795;52.074;4.754;2022-07-22T02:28:06;18.00;99.90
3562;DHT22;1795;52.074;4.754;2022-07-22T02:30:36;18.00;99.90
3562;DHT22;1795;52.074;4.754;2022-07-22T02:33:04;18.00;99.90
3562;DHT22;1795;52.074;4.754;2022-07-22T02:35:34;18.00;99.90
3562;DHT22;1795;52.074;4.754;2022-07-22T02:38:02;18.00;99.90
3562;DHT22;1795;52.074;4.754;2022-07-22T02:40:31;18.00;99.90
3562;DHT22;1795;52.074;4.754;2022-07-22T02:42:59;18.00;99.90
3562;DHT22;1795;52.074;4.754;2022-07-22T02:45:28;18.00;99.90
3562;DHT22;1795;52.074;4.754;2022-07-22T02:47:57;18.00;99.90
3562;DHT22;1795;52.074;4.754;2022-07-22T02:50:25;18.00;99.90
3562;DHT22;1795;52.074;4.754;2022-07-22T02:52:54;18.00;99.90
3562;DHT22;1795;52.074;4.754;2022-07-22T02:55:22;18.00;99.90
3562;DHT22;1795;52.074;4.754;2022-07-22T02:57:50;18.00;99.90
3562;DHT22;1795;52.074;4.754;2022-07-22T03:00:18;18.00;99.90
3562;DHT22;1795;52.074;4.754;2022-07-22T03:02:48;18.00;99.90
3562;DHT22;1795;52.074;4.754;2022-07-22T03:05:17;18.00;99.90
3562;DHT22;1795;52.074;4.754;2022-07-22T03:07:45;18.00;99.90
3562;DHT22;1795;52.074;4.754;2022-07-22T03:10:15;18.00;99.90
3562;DHT22;1795;52.074;4.754;2022-07-22T03:12:43;18.00;99.90
3562;DHT22;1795;52.074;4.754;2022-07-22T03:15:11;18.00;99.90
3562;DHT22;1795;52.074;4.754;2022-07-22T03:17:39;18.00;99.90
3562;DHT22;1795;52.074;4.754;2022-07-22T03:20:09;18.00;99.90
3562;DHT22;1795;52.074;4.754;2022-07-22T03:22:38;17.90;99.90
3562;DHT22;1795;52.074;4.754;2022-07-22T03:25:07;17.90;99.90
3562;DHT22;1795;52.074;4.754;2022-07-22T03:27:35;18.00;99.90
3562;DHT22;1795;52.074;4.754;2022-07-22T03:30:04;17.90;99.90
3562;DHT22;1795;52.074;4.754;2022-07-22T03:32:32;18.00;99.90
3562;DHT22;1795;52.074;4.754;2022-07-22T03:35:01;18.00;99.90
3562;DHT22;1795;52.074;4.754;2022-07-22T03:37:30;18.00;99.90
3562;DHT22;1795;52.074;4.754;2022-07-22T03:40:00;17.90;99.90
3562;DHT22;1795;52.074;4.754;2022-07-22T03:42:28;17.90;99.90
3562;DHT22;1795;52.074;4.754;2022-07-22T03:44:56;18.00;99.90
3562;DHT22;1795;52.074;4.754;2022-07-22T03:47:24;17.90;99.90
3562;DHT22;1795;52.074;4.754;2022-07-22T03:49:53;17.90;99.90
3562;DHT22;1795;52.074;4.754;2022-07-22T03:52:21;18.00;99.90
3562;DHT22;1795;52.074;4.754;2022-07-22T03:54:49;18.00;99.90
3562;DHT22;1795;52.074;4.754;2022-07-22T03:57:18;17.90;99.90
3562;DHT22;1795;52.074;4.754;2022-07-22T03:59:47;18.00;99.90
3562;DHT22;1795;52.074;4.754;2022-07-22T04:02:15;17.90;99.90
3562;DHT22;1795;52.074;4.754;2022-07-22T04:04:43;17.90;99.90
3562;DHT22;1795;52.074;4.754;2022-07-22T04:07:11;17.90;99.90
3562;DHT22;1795;52.074;4.754;2022-07-22T04:09:39;17.90;99.90
3562;DHT22;1795;52.074;4.754;2022-07-22T04:12:07;17.90;99.90
3562;DHT22;1795;52.074;4.754;2022-07-22T04:14:36;17.90;99.90
3562;DHT22;1795;52.074;4.754;2022-07-22T04:17:04;17.90;99.90
3562;DHT22;1795;52.074;4.754;2022-07-22T04:19:37;17.90;99.90
3562;DHT22;1795;52.074;4.754;2022-07-22T04:22:05;17.90;99.90
3562;DHT22;1795;52.074;4.754;2022-07-22T04:24:33;17.90;99.90
3562;DHT22;1795;52.074;4.754;2022-07-22T04:27:01;17.90;99.90
3562;DHT22;1795;52.074;4.754;2022-07-22T04:29:29;17.90;99.90
3562;DHT22;1795;52.074;4.754;2022-07-22T04:31:59;17.90;99.90
3562;DHT22;1795;52.074;4.754;2022-07-22T04:34:28;17.90;99.90
3562;DHT22;1795;52.074;4.754;2022-07-22T04:36:56;17.90;99.90
3562;DHT22;1795;52.074;4.754;2022-07-22T04:39:24;17.90;99.90
3562;DHT22;1795;52.074;4.754;2022-07-22T04:41:52;17.90;99.90
3562;DHT22;1795;52.074;4.754;2022-07-22T04:44:20;17.90;99.90
3562;DHT22;1795;52.074;4.754;2022-07-22T04:46:48;17.90;99.90
3562;DHT22;1795;52.074;4.754;2022-07-22T04:49:18;17.90;99.90
3562;DHT22;1795;52.074;4.754;2022-07-22T04:51:46;18.00;99.90
3562;DHT22;1795;52.074;4.754;2022-07-22T04:54:14;17.90;99.90
3562;DHT22;1795;52.074;4.754;2022-07-22T04:56:42;17.90;99.90
3562;DHT22;1795;52.074;4.754;2022-07-22T04:59:10;17.90;99.90
3562;DHT22;1795;52.074;4.754;2022-07-22T05:01:38;17.90;99.90
3562;DHT22;1795;52.074;4.754;2022-07-22T05:04:06;17.90;99.90
3562;DHT22;1795;52.074;4.754;2022-07-22T05:06:35;18.00;99.90
3562;DHT22;1795;52.074;4.754;2022-07-22T05:09:04;18.00;99.90
3562;DHT22;1795;52.074;4.754;2022-07-22T05:11:32;18.00;99.90
3562;DHT22;1795;52.074;4.754;2022-07-22T05:14:00;18.00;99.90
3562;DHT22;1795;52.074;4.754;2022-07-22T05:16:28;18.00;99.90
3562;DHT22;1795;52.074;4.754;2022-07-22T05:18:56;18.00;99.90
3562;DHT22;1795;52.074;4.754;2022-07-22T05:21:25;18.00;99.90
3562;DHT22;1795;52.074;4.754;2022-07-22T05:23:54;18.10;99.90
3562;DHT22;1795;52.074;4.754;2022-07-22T05:26:22;18.10;99.90
3562;DHT22;1795;52.074;4.754;2022-07-22T05:28:52;18.10;99.90
3562;DHT22;1795;52.074;4.754;2022-07-22T05:31:21;18.10;99.90
3562;DHT22;1795;52.074;4.754;2022-07-22T05:33:49;18.20;99.90
3562;DHT22;1795;52.074;4.754;2022-07-22T05:36:17;18.20;99.90
3562;DHT22;1795;52.074;4.754;2022-07-22T05:38:45;18.20;99.90
3562;DHT22;1795;52.074;4.754;2022-07-22T05:41:14;18.20;99.90
3562;DHT22;1795;52.074;4.754;2022-07-22T05:43:42;18.30;99.90
3562;DHT22;1795;52.074;4.754;2022-07-22T05:46:10;18.30;99.90
3562;DHT22;1795;52.074;4.754;2022-07-22T05:48:38;18.30;99.90
3562;DHT22;1795;52.074;4.754;2022-07-22T05:51:11;18.30;99.90
3562;DHT22;1795;52.074;4.754;2022-07-22T05:53:39;18.30;99.90
3562;DHT22;1795;52.074;4.754;2022-07-22T05:56:08;18.40;99.90
3562;DHT22;1795;52.074;4.754;2022-07-22T05:58:39;18.40;99.90
3562;DHT22;1795;52.074;4.754;2022-07-22T06:01:08;18.40;99.90
3562;DHT22;1795;52.074;4.754;2022-07-22T06:03:36;18.50;99.90
3562;DHT22;1795;52.074;4.754;2022-07-22T06:06:04;18.50;99.90
3562;DHT22;1795;52.074;4.754;2022-07-22T06:08:36;18.50;99.90
3562;DHT22;1795;52.074;4.754;2022-07-22T06:11:04;18.50;99.90
3562;DHT22;1795;52.074;4.754;2022-07-22T06:13:32;18.60;99.90
3562;DHT22;1795;52.074;4.754;2022-07-22T06:16:02;18.60;99.90
3562;DHT22;1795;52.074;4.754;2022-07-22T06:18:31;18.60;99.90
3562;DHT22;1795;52.074;4.754;2022-07-22T06:20:59;18.70;99.90
3562;DHT22;1795;52.074;4.754;2022-07-22T06:23:27;18.70;99.90
3562;DHT22;1795;52.074;4.754;2022-07-22T06:25:55;18.70;99.90
3562;DHT22;1795;52.074;4.754;2022-07-22T06:28:22;18.80;99.90
3562;DHT22;1795;52.074;4.754;2022-07-22T06:30:50;18.80;99.90
3562;DHT22;1795;52.074;4.754;2022-07-22T06:33:20;18.90;99.90
3562;DHT22;1795;52.074;4.754;2022-07-22T06:35:48;18.90;99.90
3562;DHT22;1795;52.074;4.754;2022-07-22T06:38:16;18.90;99.90
3562;DHT22;1795;52.074;4.754;2022-07-22T06:40:58;19.00;99.90
3562;DHT22;1795;52.074;4.754;2022-07-22T06:43:26;19.00;99.90
3562;DHT22;1795;52.074;4.754;2022-07-22T06:45:54;19.00;99.90
3562;DHT22;1795;52.074;4.754;2022-07-22T06:48:24;19.10;99.90
3562;DHT22;1795;52.074;4.754;2022-07-22T06:50:52;19.10;99.90
3562;DHT22;1795;52.074;4.754;2022-07-22T06:53:21;19.10;99.90
3562;DHT22;1795;52.074;4.754;2022-07-22T06:55:48;19.20;99.90
3562;DHT22;1795;52.074;4.754;2022-07-22T06:58:16;19.20;99.90
3562;DHT22;1795;52.074;4.754;2022-07-22T07:00:45;19.20;99.90
3562;DHT22;1795;52.074;4.754;2022-07-22T07:03:13;19.30;99.90
3562;DHT22;1795;52.074;4.754;2022-07-22T07:06:03;19.30;99.90
3562;DHT22;1795;52.074;4.754;2022-07-22T07:08:31;19.30;99.90
3562;DHT22;1795;52.074;4.754;2022-07-22T07:10:59;19.30;99.90
3562;DHT22;1795;52.074;4.754;2022-07-22T07:13:28;19.40;99.90
3562;DHT22;1795;52.074;4.754;2022-07-22T07:15:56;19.40;99.90
3562;DHT22;1795;52.074;4.754;2022-07-22T07:18:25;19.40;99.90
3562;DHT22;1795;52.074;4.754;2022-07-22T07:20:53;19.40;99.90
3562;DHT22;1795;52.074;4.754;2022-07-22T07:23:23;19.50;99.90
3562;DHT22;1795;52.074;4.754;2022-07-22T07:25:51;19.50;99.90
3562;DHT22;1795;52.074;4.754;2022-07-22T07:28:19;19.50;99.90
3562;DHT22;1795;52.074;4.754;2022-07-22T07:30:48;19.60;99.90
3562;DHT22;1795;52.074;4.754;2022-07-22T07:33:16;19.60;99.90
3562;DHT22;1795;52.074;4.754;2022-07-22T07:35:44;19.60;99.90
3562;DHT22;1795;52.074;4.754;2022-07-22T07:38:12;19.60;99.90
3562;DHT22;1795;52.074;4.754;2022-07-22T07:40:42;19.70;99.90
3562;DHT22;1795;52.074;4.754;2022-07-22T07:43:10;19.70;99.90
3562;DHT22;1795;52.074;4.754;2022-07-22T07:45:38;19.70;99.90
3562;DHT22;1795;52.074;4.754;2022-07-22T07:48:06;19.70;99.90
3562;DHT22;1795;52.074;4.754;2022-07-22T07:50:34;19.70;99.90
3562;DHT22;1795;52.074;4.754;2022-07-22T07:53:02;19.80;99.90
3562;DHT22;1795;52.074;4.754;2022-07-22T07:55:30;19.80;99.90
3562;DHT22;1795;52.074;4.754;2022-07-22T07:58:01;19.80;99.90
3562;DHT22;1795;52.074;4.754;2022-07-22T08:00:29;19.90;99.90
3562;DHT22;1795;52.074;4.754;2022-07-22T08:02:59;19.80;99.90
3562;DHT22;1795;52.074;4.754;2022-07-22T08:05:28;19.90;99.90
3562;DHT22;1795;52.074;4.754;2022-07-22T08:07:57;19.90;99.90
3562;DHT22;1795;52.074;4.754;2022-07-22T08:10:25;19.90;99.90
3562;DHT22;1795;52.074;4.754;2022-07-22T08:13:15;19.90;99.90
3562;DHT22;1795;52.074;4.754;2022-07-22T08:15:44;20.00;99.90
3562;DHT22;1795;52.074;4.754;2022-07-22T08:18:12;20.00;99.90
3562;DHT22;1795;52.074;4.754;2022-07-22T08:20:40;20.00;99.90
3562;DHT22;1795;52.074;4.754;2022-07-22T08:23:08;20.10;99.90
3562;DHT22;1795;52.074;4.754;2022-07-22T08:25:36;20.10;99.90
3562;DHT22;1795;52.074;4.754;2022-07-22T08:28:04;20.10;99.90
3562;DHT22;1795;52.074;4.754;2022-07-22T08:30:34;20.20;99.90
3562;DHT22;1795;52.074;4.754;2022-07-22T08:33:03;20.20;99.90
3562;DHT22;1795;52.074;4.754;2022-07-22T08:35:31;20.30;99.90
3562;DHT22;1795;52.074;4.754;2022-07-22T08:37:59;20.30;99.90
3562;DHT22;1795;52.074;4.754;2022-07-22T08:40:27;20.30;99.90
3562;DHT22;1795;52.074;4.754;2022-07-22T08:42:56;20.40;99.90
3562;DHT22;1795;52.074;4.754;2022-07-22T08:45:24;20.50;99.90
3562;DHT22;1795;52.074;4.754;2022-07-22T08:47:54;20.50;99.90
3562;DHT22;1795;52.074;4.754;2022-07-22T08:50:22;20.60;99.90
3562;DHT22;1795;52.074;4.754;2022-07-22T08:52:51;20.60;99.90
3562;DHT22;1795;52.074;4.754;2022-07-22T08:55:19;20.70;99.90
3562;DHT22;1795;52.074;4.754;2022-07-22T08:57:48;20.70;99.90
3562;DHT22;1795;52.074;4.754;2022-07-22T09:00:18;20.80;99.90
3562;DHT22;1795;52.074;4.754;2022-07-22T09:02:47;20.90;99.90
3562;DHT22;1795;52.074;4.754;2022-07-22T09:05:17;21.00;99.90
3562;DHT22;1795;52.074;4.754;2022-07-22T09:08:06;21.00;99.90
3562;DHT22;1795;52.074;4.754;2022-07-22T09:10:35;21.10;99.90
3562;DHT22;1795;52.074;4.754;2022-07-22T09:13:05;21.20;99.90
3562;DHT22;1795;52.074;4.754;2022-07-22T09:15:35;21.20;99.90
3562;DHT22;1795;52.074;4.754;2022-07-22T09:18:04;21.20;99.90
3562;DHT22;1795;52.074;4.754;2022-07-22T09:20:35;21.30;99.90
3562;DHT22;1795;52.074;4.754;2022-07-22T09:23:10;21.40;99.90
3562;DHT22;1795;52.074;4.754;2022-07-22T09:25:39;21.40;99.90
3562;DHT22;1795;52.074;4.754;2022-07-22T09:28:13;21.50;99.90
3562;DHT22;1795;52.074;4.754;2022-07-22T09:30:49;21.60;99.90
3562;DHT22;1795;52.074;4.754;2022-07-22T09:33:20;21.70;99.90
3562;DHT22;1795;52.074;4.754;2022-07-22T09:35:50;21.70;99.90
3562;DHT22;1795;52.074;4.754;2022-07-22T09:38:20;21.80;99.90
3562;DHT22;1795;52.074;4.754;2022-07-22T09:40:53;21.90;99.90
3562;DHT22;1795;52.074;4.754;2022-07-22T09:43:22;21.90;99.90
3562;DHT22;1795;52.074;4.754;2022-07-22T09:45:52;22.00;99.90
3562;DHT22;1795;52.074;4.754;2022-07-22T09:48:21;22.00;99.90
3562;DHT22;1795;52.074;4.754;2022-07-22T09:50:52;22.10;99.90
3562;DHT22;1795;52.074;4.754;2022-07-22T09:53:23;22.10;99.90
3562;DHT22;1795;52.074;4.754;2022-07-22T09:55:51;22.20;99.90
3562;DHT22;1795;52.074;4.754;2022-07-22T09:58:19;22.30;99.90
3562;DHT22;1795;52.074;4.754;2022-07-22T10:00:47;22.30;99.90
3562;DHT22;1795;52.074;4.754;2022-07-22T10:03:18;22.30;99.90
3562;DHT22;1795;52.074;4.754;2022-07-22T10:05:48;22.40;99.90
3562;DHT22;1795;52.074;4.754;2022-07-22T10:08:18;22.40;99.90
3562;DHT22;1795;52.074;4.754;2022-07-22T10:10:48;22.50;99.90
3562;DHT22;1795;52.074;4.754;2022-07-22T10:13:17;22.50;99.90
3562;DHT22;1795;52.074;4.754;2022-07-22T10:15:46;22.50;99.90
3562;DHT22;1795;52.074;4.754;2022-07-22T10:18:17;22.60;99.90
3562;DHT22;1795;52.074;4.754;2022-07-22T10:20:45;22.60;99.90
3562;DHT22;1795;52.074;4.754;2022-07-22T10:23:15;22.60;99.90
3562;DHT22;1795;52.074;4.754;2022-07-22T10:25:53;22.70;99.90
3562;DHT22;1795;52.074;4.754;2022-07-22T10:28:23;22.70;99.90
3562;DHT22;1795;52.074;4.754;2022-07-22T10:30:52;22.80;99.90
3562;DHT22;1795;52.074;4.754;2022-07-22T10:33:21;22.80;99.90
3562;DHT22;1795;52.074;4.754;2022-07-22T10:35:54;22.80;99.90
3562;DHT22;1795;52.074;4.754;2022-07-22T10:38:22;22.90;99.90
3562;DHT22;1795;52.074;4.754;2022-07-22T10:40:54;23.00;99.90
3562;DHT22;1795;52.074;4.754;2022-07-22T10:43:24;23.00;99.90
3562;DHT22;1795;52.074;4.754;2022-07-22T10:45:54;23.00;99.90
3562;DHT22;1795;52.074;4.754;2022-07-22T10:48:24;23.10;99.90
3562;DHT22;1795;52.074;4.754;2022-07-22T10:51:06;23.10;99.90
3562;DHT22;1795;52.074;4.754;2022-07-22T10:53:40;23.20;99.90
3562;DHT22;1795;52.074;4.754;2022-07-22T10:56:15;23.20;99.90
3562;DHT22;1795;52.074;4.754;2022-07-22T10:58:49;23.20;99.90
3562;DHT22;1795;52.074;4.754;2022-07-22T11:01:22;23.30;99.90
3562;DHT22;1795;52.074;4.754;2022-07-22T11:03:50;23.30;99.90
3562;DHT22;1795;52.074;4.754;2022-07-22T11:06:21;23.40;99.90
3562;DHT22;1795;52.074;4.754;2022-07-22T11:08:50;23.40;99.90
3562;DHT22;1795;52.074;4.754;2022-07-22T11:11:31;23.50;99.90
3562;DHT22;1795;52.074;4.754;2022-07-22T11:14:00;23.50;99.90
3562;DHT22;1795;52.074;4.754;2022-07-22T11:16:28;23.50;99.90
3562;DHT22;1795;52.074;4.754;2022-07-22T11:18:58;23.60;99.90
3562;DHT22;1795;52.074;4.754;2022-07-22T11:21:28;23.60;99.90
3562;DHT22;1795;52.074;4.754;2022-07-22T11:24:00;23.60;99.90
3562;DHT22;1795;52.074;4.754;2022-07-22T11:26:37;23.60;99.90
3562;DHT22;1795;52.074;4.754;2022-07-22T11:29:06;23.70;99.90
3562;DHT22;1795;52.074;4.754;2022-07-22T11:31:35;23.70;99.90
3562;DHT22;1795;52.074;4.754;2022-07-22T11:34:08;23.70;99.90
3562;DHT22;1795;52.074;4.754;2022-07-22T11:36:38;23.80;99.90
3562;DHT22;1795;52.074;4.754;2022-07-22T11:39:07;23.80;99.90
3562;DHT22;1795;52.074;4.754;2022-07-22T11:41:36;23.80;99.90
3562;DHT22;1795;52.074;4.754;2022-07-22T11:44:05;23.80;99.90
3562;DHT22;1795;52.074;4.754;2022-07-22T11:46:38;23.90;99.90
3562;DHT22;1795;52.074;4.754;2022-07-22T11:49:07;23.90;99.90
3562;DHT22;1795;52.074;4.754;2022-07-22T11:51:37;24.00;99.90
3562;DHT22;1795;52.074;4.754;2022-07-22T11:54:05;24.00;99.90
3562;DHT22;1795;52.074;4.754;2022-07-22T11:56:34;24.10;99.90
3562;DHT22;1795;52.074;4.754;2022-07-22T11:59:04;24.10;99.90
3562;DHT22;1795;52.074;4.754;2022-07-22T12:01:33;24.10;99.90
3562;DHT22;1795;52.074;4.754;2022-07-22T12:04:03;24.20;99.90
3562;DHT22;1795;52.074;4.754;2022-07-22T12:06:34;24.20;99.90
3562;DHT22;1795;52.074;4.754;2022-07-22T12:09:06;24.30;99.90
3562;DHT22;1795;52.074;4.754;2022-07-22T12:11:36;24.30;99.90
3562;DHT22;1795;52.074;4.754;2022-07-22T12:14:07;24.30;99.90
3562;DHT22;1795;52.074;4.754;2022-07-22T12:16:42;24.40;99.90
3562;DHT22;1795;52.074;4.754;2022-07-22T12:19:13;24.40;99.90
3562;DHT22;1795;52.074;4.754;2022-07-22T12:21:53;24.50;99.90
3562;DHT22;1795;52.074;4.754;2022-07-22T12:24:26;24.50;99.90
3562;DHT22;1795;52.074;4.754;2022-07-22T12:26:56;24.50;99.90
3562;DHT22;1795;52.074;4.754;2022-07-22T12:29:27;24.50;99.90
3562;DHT22;1795;52.074;4.754;2022-07-22T12:31:58;24.50;99.90
3562;DHT22;1795;52.074;4.754;2022-07-22T12:34:32;24.50;99.90
3562;DHT22;1795;52.074;4.754;2022-07-22T12:37:12;24.60;99.90
3562;DHT22;1795;52.074;4.754;2022-07-22T12:39:52;24.60;99.90
3562;DHT22;1795;52.074;4.754;2022-07-22T12:42:21;24.60;99.90
3562;DHT22;1795;52.074;4.754;2022-07-22T12:44:59;24.70;99.90
3562;DHT22;1795;52.074;4.754;2022-07-22T12:47:42;24.70;99.90
3562;DHT22;1795;52.074;4.754;2022-07-22T12:50:22;24.70;99.90
3562;DHT22;1795;52.074;4.754;2022-07-22T12:52:53;24.70;99.90
3562;DHT22;1795;52.074;4.754;2022-07-22T12:55:42;24.70;99.90
3562;DHT22;1795;52.074;4.754;2022-07-22T12:58:12;24.80;99.90
3562;DHT22;1795;52.074;4.754;2022-07-22T13:00:44;24.80;99.90
3562;DHT22;1795;52.074;4.754;2022-07-22T13:03:12;24.80;99.90
3562;DHT22;1795;52.074;4.754;2022-07-22T13:05:41;24.90;99.90
3562;DHT22;1795;52.074;4.754;2022-07-22T13:08:09;24.90;99.90
3562;DHT22;1795;52.074;4.754;2022-07-22T13:10:39;24.90;99.90
3562;DHT22;1795;52.074;4.754;2022-07-22T13:13:07;24.90;99.90
3562;DHT22;1795;52.074;4.754;2022-07-22T13:15:37;25.00;99.90
3562;DHT22;1795;52.074;4.754;2022-07-22T13:18:06;25.00;99.90
3562;DHT22;1795;52.074;4.754;2022-07-22T13:20:34;25.10;99.90
3562;DHT22;1795;52.074;4.754;2022-07-22T13:23:03;25.10;99.90
3562;DHT22;1795;52.074;4.754;2022-07-22T13:25:31;25.10;99.90
3562;DHT22;1795;52.074;4.754;2022-07-22T13:28:00;25.10;99.90
3562;DHT22;1795;52.074;4.754;2022-07-22T13:30:28;25.10;99.90
3562;DHT22;1795;52.074;4.754;2022-07-22T13:32:56;25.10;99.90
3562;DHT22;1795;52.074;4.754;2022-07-22T13:35:25;25.20;99.90
3562;DHT22;1795;52.074;4.754;2022-07-22T13:37:56;25.20;99.90
3562;DHT22;1795;52.074;4.754;2022-07-22T13:40:24;25.20;99.90
3562;DHT22;1795;52.074;4.754;2022-07-22T13:42:52;25.30;99.90
3562;DHT22;1795;52.074;4.754;2022-07-22T13:45:20;25.30;99.90
3562;DHT22;1795;52.074;4.754;2022-07-22T13:47:48;25.30;99.90
3562;DHT22;1795;52.074;4.754;2022-07-22T13:50:16;25.30;99.90
3562;DHT22;1795;52.074;4.754;2022-07-22T13:52:46;25.40;99.90
3562;DHT22;1795;52.074;4.754;2022-07-22T13:55:14;25.30;99.90
3562;DHT22;1795;52.074;4.754;2022-07-22T13:57:42;25.40;99.90
3562;DHT22;1795;52.074;4.754;2022-07-22T14:00:10;25.40;99.90
3562;DHT22;1795;52.074;4.754;2022-07-22T14:02:42;25.40;99.90
3562;DHT22;1795;52.074;4.754;2022-07-22T14:05:11;25.40;99.90
3562;DHT22;1795;52.074;4.754;2022-07-22T14:07:39;25.50;99.90
3562;DHT22;1795;52.074;4.754;2022-07-22T14:10:09;25.50;99.90
3562;DHT22;1795;52.074;4.754;2022-07-22T14:12:37;25.50;99.90
3562;DHT22;1795;52.074;4.754;2022-07-22T14:15:06;25.60;99.90
3562;DHT22;1795;52.074;4.754;2022-07-22T14:17:35;25.60;99.90
3562;DHT22;1795;52.074;4.754;2022-07-22T14:20:04;25.60;99.90
3562;DHT22;1795;52.074;4.754;2022-07-22T14:22:34;25.60;99.90
3562;DHT22;1795;52.074;4.754;2022-07-22T14:25:02;25.60;99.90
3562;DHT22;1795;52.074;4.754;2022-07-22T14:27:32;25.70;99.90
3562;DHT22;1795;52.074;4.754;2022-07-22T14:30:00;25.70;99.90
3562;DHT22;1795;52.074;4.754;2022-07-22T14:32:28;25.70;99.90
3562;DHT22;1795;52.074;4.754;2022-07-22T14:34:56;25.70;99.90
3562;DHT22;1795;52.074;4.754;2022-07-22T14:37:24;25.80;99.90
3562;DHT22;1795;52.074;4.754;2022-07-22T14:39:53;25.80;99.90
3562;DHT22;1795;52.074;4.754;2022-07-22T14:42:21;25.90;99.90
3562;DHT22;1795;52.074;4.754;2022-07-22T14:44:50;25.90;99.90
3562;DHT22;1795;52.074;4.754;2022-07-22T14:47:18;26.00;99.90
3562;DHT22;1795;52.074;4.754;2022-07-22T14:49:47;26.10;99.90
3562;DHT22;1795;52.074;4.754;2022-07-22T14:52:15;26.10;99.90
3562;DHT22;1795;52.074;4.754;2022-07-22T14:54:43;26.20;99.90
3562;DHT22;1795;52.074;4.754;2022-07-22T14:57:11;26.20;99.90
3562;DHT22;1795;52.074;4.754;2022-07-22T14:59:39;26.30;99.90
3562;DHT22;1795;52.074;4.754;2022-07-22T15:02:09;26.40;99.80
3562;DHT22;1795;52.074;4.754;2022-07-22T15:04:37;26.40;99.80
3562;DHT22;1795;52.074;4.754;2022-07-22T15:07:05;26.40;99.90
3562;DHT22;1795;52.074;4.754;2022-07-22T15:09:33;26.50;99.60
3562;DHT22;1795;52.074;4.754;2022-07-22T15:12:01;26.60;99.60
3562;DHT22;1795;52.074;4.754;2022-07-22T15:14:29;26.60;99.90
3562;DHT22;1795;52.074;4.754;2022-07-22T15:16:57;26.70;99.90
3562;DHT22;1795;52.074;4.754;2022-07-22T15:19:27;26.80;99.80
3562;DHT22;1795;52.074;4.754;2022-07-22T15:21:55;26.80;99.50
3562;DHT22;1795;52.074;4.754;2022-07-22T15:24:23;26.80;99.10
3562;DHT22;1795;52.074;4.754;2022-07-22T15:26:51;26.90;99.30
3562;DHT22;1795;52.074;4.754;2022-07-22T15:29:19;26.90;99.20
3562;DHT22;1795;52.074;4.754;2022-07-22T15:31:47;27.00;98.80
3562;DHT22;1795;52.074;4.754;2022-07-22T15:34:15;27.00;99.10
3562;DHT22;1795;52.074;4.754;2022-07-22T15:36:45;27.00;98.70
3562;DHT22;1795;52.074;4.754;2022-07-22T15:39:13;27.10;98.80
3562;DHT22;1795;52.074;4.754;2022-07-22T15:41:41;27.10;98.60
3562;DHT22;1795;52.074;4.754;2022-07-22T15:44:09;27.20;98.90
3562;DHT22;1795;52.074;4.754;2022-07-22T15:46:37;27.20;98.10
3562;DHT22;1795;52.074;4.754;2022-07-22T15:49:05;27.20;98.30
3562;DHT22;1795;52.074;4.754;2022-07-22T15:51:33;27.20;97.60
3562;DHT22;1795;52.074;4.754;2022-07-22T15:54:03;27.20;97.10
3562;DHT22;1795;52.074;4.754;2022-07-22T15:56:31;27.20;97.70
3562;DHT22;1795;52.074;4.754;2022-07-22T15:58:59;27.30;98.00
3562;DHT22;1795;52.074;4.754;2022-07-22T16:01:55;27.30;97.40
3562;DHT22;1795;52.074;4.754;2022-07-22T16:04:23;27.30;97.20
3562;DHT22;1795;52.074;4.754;2022-07-22T16:06:51;27.30;97.40
3562;DHT22;1795;52.074;4.754;2022-07-22T16:09:23;27.20;97.50
3562;DHT22;1795;52.074;4.754;2022-07-22T16:11:54;27.20;97.40
3562;DHT22;1795;52.074;4.754;2022-07-22T16:14:22;27.20;97.10
3562;DHT22;1795;52.074;4.754;2022-07-22T16:16:51;27.10;97.30